createdAt,value
2018-05-24T00:02:20.544Z,3.87
2018-05-24T00:04:48.241Z,3.80
2018-05-24T00:07:15.776Z,4.03
2018-05-24T00:09:43.489Z,4.00
2018-05-24T00:12:12.088Z,4.03
2018-05-24T00:14:40.355Z,4.03
2018-05-24T00:17:08.255Z,4.40
2018-05-24T00:19:36.915Z,4.33
2018-05-24T00:22:05.780Z,4.20
2018-05-24T00:24:33.504Z,4.13
2018-05-24T00:27:00.992Z,4.20
2018-05-24T00:29:28.775Z,4.10
2018-05-24T00:31:56.267Z,4.20
2018-05-24T00:34:23.754Z,4.23
2018-05-24T00:36:51.527Z,4.50
2018-05-24T00:39:19.740Z,4.00
2018-05-24T00:41:48.191Z,4.90
2018-05-24T00:44:15.899Z,4.33
2018-05-24T00:46:43.388Z,3.90
2018-05-24T00:49:10.902Z,4.30
2018-05-24T00:51:38.423Z,4.20
2018-05-24T00:54:09.642Z,4.20
2018-05-24T00:56:37.122Z,4.13
2018-05-24T00:59:04.608Z,3.90
2018-05-24T01:01:33.690Z,4.00
2018-05-24T01:04:01.240Z,3.83
2018-05-24T01:06:28.791Z,5.00
2018-05-24T01:08:56.463Z,4.00
2018-05-24T01:11:24.347Z,4.10
2018-05-24T01:13:51.874Z,3.80
2018-05-24T01:16:19.358Z,3.63
2018-05-24T01:18:46.867Z,3.90
2018-05-24T01:21:14.379Z,4.07
2018-05-24T01:23:42.145Z,3.77
2018-05-24T01:26:09.648Z,3.47
2018-05-24T01:28:37.202Z,3.50
2018-05-24T01:31:04.775Z,3.60
2018-05-24T01:33:32.264Z,3.63
2018-05-24T01:36:00.492Z,3.40
2018-05-24T01:38:28.015Z,3.80
2018-05-24T01:40:55.528Z,3.37
2018-05-24T01:43:23.094Z,3.37
2018-05-24T01:45:50.652Z,3.57
2018-05-24T01:51:00.100Z,3.60
2018-05-24T01:53:27.562Z,3.70
2018-05-24T01:55:55.040Z,3.30
2018-05-24T01:58:22.583Z,3.70
2018-05-24T02:00:50.281Z,3.70
2018-05-24T02:03:18.840Z,3.60
2018-05-24T02:05:46.314Z,3.70
2018-05-24T02:08:13.797Z,3.90
2018-05-24T02:10:42.134Z,3.70
2018-05-24T02:13:09.637Z,3.87
2018-05-24T02:15:37.911Z,4.00
2018-05-24T02:18:06.479Z,3.67
2018-05-24T02:20:34.792Z,3.90
2018-05-24T02:23:03.176Z,3.90
2018-05-24T02:25:31.091Z,4.00
2018-05-24T02:27:58.591Z,3.87
2018-05-24T02:30:26.161Z,3.70
2018-05-24T02:32:54.399Z,3.93
2018-05-24T02:35:22.631Z,3.67
2018-05-24T02:37:50.115Z,3.93
2018-05-24T02:40:18.423Z,3.80
2018-05-24T02:42:45.927Z,3.90
2018-05-24T02:45:13.684Z,3.97
2018-05-24T02:47:43.570Z,4.10
2018-05-24T02:50:18.516Z,4.00
2018-05-24T02:52:46.050Z,3.73
2018-05-24T02:55:13.519Z,3.80
2018-05-24T02:57:41.007Z,4.00
2018-05-24T03:00:08.531Z,4.20
2018-05-24T03:02:36.051Z,4.20
2018-05-24T03:05:03.580Z,4.27
2018-05-24T03:07:31.103Z,3.90
2018-05-24T03:09:58.581Z,4.13
2018-05-24T03:12:26.103Z,4.00
2018-05-24T03:14:54.395Z,4.30
2018-05-24T03:17:21.935Z,4.67
2018-05-24T03:19:50.222Z,4.47
2018-05-24T03:22:18.507Z,4.40
2018-05-24T03:24:45.990Z,3.97
2018-05-24T03:27:13.514Z,4.13
2018-05-24T03:29:41.091Z,4.20
2018-05-24T03:32:08.799Z,4.40
2018-05-24T03:34:36.298Z,4.87
2018-05-24T03:37:03.770Z,4.23
2018-05-24T03:39:31.263Z,4.37
2018-05-24T03:42:03.872Z,4.70
2018-05-24T03:44:31.342Z,4.50
2018-05-24T03:46:59.595Z,3.80
2018-05-24T03:49:27.095Z,4.33
2018-05-24T03:51:59.814Z,4.67
2018-05-24T03:54:27.672Z,4.13
2018-05-24T03:56:55.607Z,4.97
2018-05-24T04:02:46.910Z,4.20
2018-05-24T04:05:14.388Z,4.03
2018-05-24T04:07:41.880Z,4.27
2018-05-24T04:10:10.231Z,4.63
2018-05-24T04:12:37.757Z,4.50
2018-05-24T04:15:05.243Z,4.10
2018-05-24T04:17:32.739Z,4.20
2018-05-24T04:20:00.830Z,4.20
2018-05-24T04:22:28.316Z,3.83
2018-05-24T04:24:56.581Z,4.23
2018-05-24T04:27:24.068Z,4.23
2018-05-24T04:29:51.536Z,5.13
2018-05-24T04:32:19.059Z,4.93
2018-05-24T04:34:46.547Z,4.90
2018-05-24T04:37:14.032Z,4.60
2018-05-24T04:39:41.542Z,4.93
2018-05-24T04:42:09.816Z,3.80
2018-05-24T04:44:37.302Z,3.73
2018-05-24T04:47:05.350Z,3.73
2018-05-24T04:49:34.408Z,3.30
2018-05-24T04:52:02.299Z,3.13
2018-05-24T04:54:29.783Z,3.70
2018-05-24T04:56:57.283Z,3.10
2018-05-24T04:59:24.779Z,3.77
2018-05-24T05:01:53.099Z,3.03
2018-05-24T05:04:20.603Z,4.83
2018-05-24T05:06:48.868Z,3.47
2018-05-24T05:09:17.614Z,3.23
2018-05-24T05:22:30.336Z,2.80
2018-05-24T05:25:23.910Z,3.30
2018-05-24T05:28:02.433Z,3.10
2018-05-24T05:30:40.727Z,3.60
2018-05-24T05:33:13.565Z,3.47
2018-05-24T05:38:15.462Z,3.20
2018-05-24T05:43:24.551Z,2.67
2018-05-24T05:45:56.478Z,2.70
2018-05-24T05:51:05.865Z,2.80
2018-05-24T05:53:37.940Z,2.77
2018-05-24T05:58:38.053Z,2.30
2018-05-24T06:01:06.920Z,2.30
2018-05-24T06:03:34.733Z,2.40
2018-05-24T06:06:02.991Z,2.00
2018-05-24T06:08:31.204Z,2.00
2018-05-24T06:10:59.106Z,2.57
2018-05-24T06:13:26.586Z,2.37
2018-05-24T06:15:54.065Z,2.20
2018-05-24T06:18:22.625Z,2.27
2018-05-24T06:42:28.125Z,1.63
2018-05-24T07:27:26.669Z,1.50
2018-05-24T07:29:55.588Z,1.50
2018-05-24T07:37:32.103Z,1.70
2018-05-24T07:42:35.161Z,1.50
2018-05-24T07:45:07.996Z,1.30
2018-05-24T07:52:44.497Z,1.30
2018-05-24T07:57:51.458Z,1.50
2018-05-24T08:08:12.968Z,1.40
2018-05-24T08:13:26.652Z,1.40
2018-05-24T08:16:00.553Z,1.63
2018-05-24T08:21:15.846Z,1.40
2018-05-24T08:23:48.273Z,1.50
2018-05-24T08:28:55.374Z,1.73
2018-05-24T08:32:06.153Z,1.13
2018-05-24T08:34:36.534Z,1.50
2018-05-24T08:39:42.116Z,1.20
2018-05-24T08:42:12.536Z,1.23
2018-05-24T08:47:17.878Z,1.47
2018-05-24T08:54:55.740Z,3.60
2018-05-24T08:57:33.719Z,1.50
2018-05-24T09:02:41.489Z,1.50
2018-05-24T09:10:26.602Z,1.60
2018-05-24T09:12:54.923Z,1.50
2018-05-24T09:39:13.215Z,1.60
2018-05-24T11:06:01.109Z,2.07
2018-05-24T12:04:41.021Z,2.20
2018-05-24T12:07:12.409Z,2.03
2018-05-24T13:27:53.286Z,2.10
2018-05-24T15:32:32.379Z,1.62
2018-05-24T15:55:11.514Z,1.83
2018-05-24T20:32:35.050Z,2.07
2018-05-24T20:42:46.310Z,1.70
2018-05-24T21:08:18.977Z,1.63
2018-05-24T21:28:38.762Z,1.47
2018-05-24T21:43:48.453Z,1.50
2018-05-24T21:48:52.266Z,1.30
2018-05-24T22:04:10.476Z,1.10
2018-05-24T22:42:18.336Z,0.90
2018-05-24T22:49:50.294Z,0.80
2018-05-24T22:52:19.475Z,0.90
2018-05-24T22:54:48.881Z,0.87
2018-05-24T22:59:48.830Z,0.90
2018-05-24T23:02:17.988Z,0.90
2018-05-24T23:04:48.943Z,0.83
2018-05-24T23:07:16.650Z,0.80
2018-05-24T23:17:25.918Z,0.80
2018-05-24T23:22:42.618Z,0.80
2018-05-24T23:25:10.303Z,0.90
2018-05-24T23:27:38.137Z,0.70
2018-05-24T23:30:07.851Z,0.77
2018-05-24T23:35:09.242Z,1.50
2018-05-24T23:42:42.076Z,0.80
2018-05-24T23:45:11.119Z,0.90
2018-05-24T23:47:41.452Z,0.80
2018-05-24T23:50:09.403Z,1.10
2018-05-24T23:52:43.582Z,0.90
2018-05-24T23:55:14.447Z,0.87
2018-05-24T23:57:43.572Z,0.80
